METAR Data
IDs: Format: Raw Decoded Include TAF

Data at: 0238 UTC 12 May 2021

METAR for:TJNR (Roosevelt Roads Arpt, PR, US)
Text:TJNR 120053Z AUTO 09007KT 10SM FEW022 26/23 A3008 RMK AO2 SLP185 T02610233 $
Temperature: 26.1°C ( 79°F)
Dewpoint: 23.3°C ( 74°F) [RH = 85%]
Pressure (altimeter):30.08 inches Hg (1018.7 mb) [Sea level pressure: 1018.5 mb]
Winds:from the E (90 degrees) at 8 MPH (7 knots; 3.6 m/s)
Visibility:10 or more sm (16+ km)
Ceiling:at least 12,000 feet AGL
Clouds: few clouds at 2200 feet AGL
QC Flag:automated observation with no human augmentation; SOME DATA ABOVE MAY BE INACCURATE!!!"$" is an indication the sensor requires maintenance.